Terminal Aerodrome Forecast
Issued by NWS Tulsa, OK

Home | Current Version | Previous Version | Text Only | Print | Product List | Glossary On
Versions: 1 2 3 4 5 6 7 8 9 10 11 12 13 14
000
FTUS44 KTSA 211839 AAA
TAFFSM
TAF AMD
KFSM 211839Z 2119/2218 21011G20KT P6SM VCSH BKN035 OVC050
     FM212200 21011G20KT P6SM VCTS BKN025CB BKN250
      TEMPO 2200/2204 VRB15G35KT 3SM -TSRA BR BKN015CB
     FM220600 26011KT P6SM SCT100
     FM221600 27020G28KT P6SM BKN040=

USA.gov is the U.S. government's official web portal to all federal, state and local government web resources and services.